Time;durP1;ratioP1;P1;durP2;ratioP2;P2;SDS_P1;SDS_P2;PMS_P1;PMS_P2;Temp;Humidity;BMP_temperature;BMP_pressure;BME280_temperature;BME280_humidity;BME280_pressure;Samples;Min_cycle;Max_cycle;Signal;HPM_P1;HPM_P2
2022/01/05 00:00:25;;;;;;;23.63;12.40;;;;;;;10.11;100.00;98187.66;5081739;28;20049;-95
2022/01/05 00:02:52;;;;;;;20.85;11.90;;;;;;;10.27;100.00;98210.09;5080812;28;20047;-95
2022/01/05 00:05:18;;;;;;;25.17;11.90;;;;;;;10.13;100.00;98184.91;5080509;28;20044;-95
2022/01/05 00:07:45;;;;;;;22.60;11.68;;;;;;;10.12;100.00;98186.72;5062710;28;20175;-95
2022/01/05 00:10:12;;;;;;;23.00;12.18;;;;;;;10.13;100.00;98179.59;5060920;28;20049;-94
2022/01/05 00:12:38;;;;;;;21.67;11.27;;;;;;;10.19;100.00;98176.75;5060746;28;20075;-95
2022/01/05 00:21:48;;;;;;;19.17;10.57;;;;;;;10.21;100.00;98162.50;5082010;28;20024;-95
2022/01/05 00:24:15;;;;;;;20.52;10.63;;;;;;;10.21;100.00;98164.28;5080541;28;20494;-95
2022/01/05 00:26:41;;;;;;;17.63;10.38;;;;;;;10.15;100.00;98146.78;5080470;28;20067;-96
2022/01/05 00:29:07;;;;;;;20.85;10.35;;;;;;;10.17;100.00;98138.72;5063863;28;20478;-96
2022/01/05 00:31:33;;;;;;;16.15;9.30;;;;;;;10.18;100.00;98135.16;5064767;28;20136;-95
2022/01/05 00:33:59;;;;;;;16.63;8.85;;;;;;;10.18;100.00;98124.53;5063027;28;20056;-96
2022/01/05 00:36:25;;;;;;;19.33;10.40;;;;;;;10.28;100.00;98145.41;5064003;28;20045;-95
2022/01/05 00:38:51;;;;;;;18.60;9.77;;;;;;;10.21;100.00;98127.06;5063976;28;20411;-95
2022/01/05 00:41:19;;;;;;;14.25;8.38;;;;;;;10.27;100.00;98137.50;5062919;28;20052;-95
2022/01/05 00:43:45;;;;;;;21.95;9.68;;;;;;;10.29;100.00;98133.03;5065940;28;20045;-94
2022/01/05 00:49:35;;;;;;;16.48;8.30;;;;;;;10.23;100.00;98118.13;5062167;28;20017;-96
2022/01/05 00:52:03;;;;;;;14.55;8.18;;;;;;;10.30;100.00;98108.19;5067512;28;20048;-94
2022/01/05 00:54:29;;;;;;;16.65;8.50;;;;;;;10.45;100.00;98128.91;5072348;28;20113;-95
2022/01/05 00:56:57;;;;;;;15.55;7.70;;;;;;;10.29;100.00;98106.44;5068225;28;20072;-95
2022/01/05 00:59:24;;;;;;;16.17;8.32;;;;;;;10.26;100.00;98095.91;5078018;28;20045;-96
2022/01/05 01:05:14;;;;;;;15.32;7.50;;;;;;;10.28;100.00;98105.56;5044928;28;20033;-93
2022/01/05 01:07:40;;;;;;;13.27;7.05;;;;;;;10.32;100.00;98111.63;5041650;28;20265;-94
2022/01/05 01:10:07;;;;;;;15.05;8.00;;;;;;;10.36;100.00;98113.25;5042106;28;20049;-94
2022/01/05 01:12:35;;;;;;;15.85;7.03;;;;;;;10.32;99.84;98102.81;5062646;28;20067;-96
2022/01/05 01:21:44;;;;;;;12.80;7.55;;;;;;;10.40;98.68;98103.41;5044038;28;20045;-96
2022/01/05 01:24:10;;;;;;;12.90;7.78;;;;;;;10.30;99.11;98094.91;5062193;28;20055;-92
2022/01/05 01:26:36;;;;;;;12.57;6.80;;;;;;;10.33;99.28;98097.44;5060976;28;20041;-95
2022/01/05 01:29:04;;;;;;;16.35;7.10;;;;;;;10.40;98.85;98112.22;5061220;28;20455;-95
2022/01/05 01:34:52;;;;;;;14.70;8.40;;;;;;;10.30;98.62;98081.63;5061255;28;20025;-94
2022/01/05 01:37:18;;;;;;;16.08;8.43;;;;;;;10.40;98.43;98098.94;5061920;28;20048;-96
2022/01/05 01:39:44;;;;;;;18.13;8.68;;;;;;;10.37;98.37;98090.22;5061560;28;20041;-95
2022/01/05 01:42:10;;;;;;;14.80;8.20;;;;;;;10.32;98.32;98078.88;5062063;28;20053;-94
2022/01/05 01:44:37;;;;;;;18.92;10.18;;;;;;;10.30;98.96;98078.06;5061635;28;20116;-92
2022/01/05 01:54:00;;;;;;;14.93;9.75;;;;;;;10.42;98.84;98096.22;5061966;28;20092;-95
2022/01/05 01:56:31;;;;;;;21.80;10.48;;;;;;;10.24;98.83;98066.72;5062386;28;20067;-95
2022/01/05 01:58:59;;;;;;;17.25;10.07;;;;;;;10.21;99.50;98061.53;5061497;28;20398;-95
2022/01/05 02:05:09;;;;;;;16.10;9.63;;;;;;;10.26;99.16;98064.03;5062628;28;20033;-96
2022/01/05 02:07:35;;;;;;;18.75;10.10;;;;;;;10.23;99.63;98048.19;5081085;28;20040;-95
2022/01/05 02:10:07;;;;;;;18.10;9.65;;;;;;;10.29;99.01;98055.97;5066381;28;20049;-94
2022/01/05 02:12:33;;;;;;;14.02;8.52;;;;;;;10.30;98.86;98044.41;5064020;28;20041;-95
2022/01/05 02:14:59;;;;;;;16.35;9.50;;;;;;;10.38;98.98;98058.25;5065796;28;20041;-95
2022/01/05 02:20:57;;;;;;;17.88;9.05;;;;;;;10.19;99.26;98022.63;5064459;28;20487;-94
2022/01/05 02:23:23;;;;;;;15.88;9.23;;;;;;;10.18;99.09;98016.47;5063482;28;20100;-95
2022/01/05 02:25:49;;;;;;;17.42;9.65;;;;;;;10.21;98.43;98018.13;5061270;28;20475;-95
2022/01/05 02:28:15;;;;;;;18.98;9.52;;;;;;;10.30;99.07;98025.81;5061986;28;20095;-94
2022/01/05 02:34:34;;;;;;;18.38;8.82;;;;;;;10.42;98.09;98035.97;5061942;28;20033;-96
2022/01/05 02:37:01;;;;;;;11.93;7.70;;;;;;;10.37;98.51;98027.31;5060788;28;20137;-95
2022/01/05 02:39:28;;;;;;;16.42;8.68;;;;;;;10.27;98.33;98008.13;5062329;28;20051;-94
2022/01/05 02:41:54;;;;;;;15.80;8.15;;;;;;;10.23;97.76;97993.22;5060715;28;20071;-93
2022/01/05 02:44:20;;;;;;;15.50;8.57;;;;;;;10.33;97.85;98006.22;5061425;28;20059;-95
2022/01/05 02:50:11;;;;;;;13.32;7.93;;;;;;;10.33;98.07;98006.22;5047925;28;20052;-95
2022/01/05 02:52:39;;;;;;;19.38;8.75;;;;;;;10.41;97.37;98012.97;5059996;28;20053;-93
2022/01/05 02:55:08;;;;;;;15.85;8.40;;;;;;;10.22;97.59;97983.53;5060504;28;20071;-95
2022/01/05 02:57:34;;;;;;;16.08;8.07;;;;;;;10.33;97.61;98000.91;5058854;28;20056;-91
2022/01/05 03:06:09;;;;;;;12.75;7.68;;;;;;;10.22;96.97;97972.91;5060692;28;20119;-95
2022/01/05 03:08:36;;;;;;;12.73;7.53;;;;;;;10.39;96.90;97996.22;5060110;28;20060;-96
2022/01/05 03:11:03;;;;;;;13.05;8.07;;;;;;;10.23;97.31;97969.31;5061699;28;20041;-96
2022/01/05 03:13:30;;;;;;;14.10;7.43;;;;;;;10.31;96.74;97976.19;5060259;28;20072;-95
2022/01/05 03:19:32;;;;;;;16.15;7.80;;;;;;;10.25;96.72;97967.47;5058882;28;20568;-94
2022/01/05 03:21:58;;;;;;;14.50;7.80;;;;;;;10.21;96.80;97965.00;5060134;28;20143;-93
2022/01/05 03:24:26;;;;;;;13.93;7.40;;;;;;;10.26;96.45;97963.06;5059398;28;20049;-96
2022/01/05 03:26:52;;;;;;;15.60;7.30;;;;;;;10.42;96.54;97979.28;5060028;28;20041;-95
2022/01/05 03:29:18;;;;;;;12.80;7.25;;;;;;;10.30;96.59;97958.50;5059011;28;20051;-95
2022/01/05 03:35:08;;;;;;;11.18;6.85;;;;;;;10.31;96.16;97944.28;5040759;28;20120;-96
2022/01/05 03:37:37;;;;;;;15.23;8.00;;;;;;;10.27;96.13;97941.72;5060170;28;20131;-96
2022/01/05 03:40:06;;;;;;;15.77;8.10;;;;;;;10.27;96.25;97935.53;5061534;28;20045;-95
2022/01/05 03:42:32;;;;;;;;;;;;;;;10.44;95.94;97964.16;5063197;28;20060;-94
2022/01/05 03:51:07;;;;;;;13.82;7.00;;;;;;;10.24;95.80;97939.19;5060586;28;20059;-95
2022/01/05 03:53:34;;;;;;;12.00;7.30;;;;;;;10.32;95.38;97938.91;5059138;28;20049;-94
2022/01/05 03:56:02;;;;;;;14.40;8.18;;;;;;;10.26;95.28;97926.72;5059593;28;20075;-93
2022/01/05 03:58:28;;;;;;;17.45;9.10;;;;;;;10.37;94.99;97939.59;5061880;28;20127;-95
2022/01/05 04:00:54;;;;;;;14.25;7.53;;;;;;;10.27;95.46;97927.56;5064946;28;20071;-94
2022/01/05 04:03:20;;;;;;;10.95;7.20;;;;;;;10.33;95.22;97934.47;5064687;28;20049;-95
2022/01/05 04:05:47;;;;;;;12.10;7.55;;;;;;;10.24;95.75;97928.56;5064251;28;20047;-95
2022/01/05 04:08:13;;;;;;;12.77;7.30;;;;;;;10.25;95.91;97932.94;5065092;28;20049;-94
2022/01/05 04:10:39;;;;;;;13.90;7.95;;;;;;;10.36;96.03;97943.16;5065215;28;20039;-95
2022/01/05 04:13:07;;;;;;;14.43;7.88;;;;;;;10.28;96.17;97926.66;5067218;28;20056;-93
2022/01/05 04:19:32;;;;;;;12.15;7.30;;;;;;;10.34;96.20;97942.38;5065206;28;20175;-94
2022/01/05 04:21:58;;;;;;;13.90;8.13;;;;;;;10.25;96.10;97930.28;5064256;28;20045;-95
2022/01/05 04:24:24;;;;;;;17.17;7.38;;;;;;;10.36;95.80;97934.34;5065684;28;20399;-95
2022/01/05 04:26:50;;;;;;;13.90;8.05;;;;;;;10.25;95.77;97917.00;5066867;28;20052;-94
2022/01/05 04:29:18;;;;;;;15.05;7.63;;;;;;;10.21;95.38;97903.88;5065689;28;20037;-95
2022/01/05 04:35:07;;;;;;;11.75;6.57;;;;;;;10.25;95.07;97881.59;5064177;28;20040;-94
2022/01/05 04:37:33;;;;;;;14.63;7.38;;;;;;;10.29;95.11;97893.88;5063703;28;20080;-96
2022/01/05 04:39:59;;;;;;;12.13;6.47;;;;;;;10.20;95.15;97880.91;5063972;28;20087;-93
2022/01/05 04:42:26;;;;;;;13.02;6.80;;;;;;;10.31;95.28;97897.31;5064476;28;20052;-94
2022/01/05 04:44:56;;;;;;;11.57;6.32;;;;;;;10.23;95.18;97878.13;5063838;28;20048;-95
2022/01/05 04:50:44;;;;;;;16.42;6.30;;;;;;;10.34;95.08;97902.50;5063325;28;20029;-94
2022/01/05 04:53:11;;;;;;;9.82;6.35;;;;;;;10.35;95.22;97904.25;5062099;28;20056;-95
2022/01/05 04:55:37;;;;;;;13.30;6.15;;;;;;;10.18;95.14;97865.03;5063652;28;20041;-94
2022/01/05 04:58:05;;;;;;;11.48;6.20;;;;;;;10.22;95.02;97877.28;5063737;28;20037;-96
2022/01/05 05:00:33;;;;;;;11.32;6.25;;;;;;;10.20;95.23;97870.28;5062251;28;20530;-94
2022/01/05 05:02:59;;;;;;;14.40;6.70;;;;;;;10.21;95.28;97866.69;5062944;28;20559;-95
2022/01/05 05:05:25;;;;;;;12.57;7.03;;;;;;;10.39;94.71;97892.56;5064173;28;20045;-96
2022/01/05 05:07:51;;;;;;;11.82;6.40;;;;;;;10.21;94.87;97859.59;5062832;28;20037;-95
2022/01/05 05:10:18;;;;;;;15.13;7.05;;;;;;;10.19;95.15;97858.81;5064002;28;20037;-96
2022/01/05 05:12:44;;;;;;;21.33;6.90;;;;;;;10.37;95.19;97890.91;5063502;28;20133;-94
2022/01/05 05:18:34;;;;;;;15.70;6.80;;;;;;;10.30;95.26;97874.34;5065199;28;20043;-95
2022/01/05 05:21:01;;;;;;;13.40;6.47;;;;;;;10.21;94.66;97843.66;5061829;28;20041;-95
2022/01/05 05:23:29;;;;;;;12.35;6.47;;;;;;;10.22;94.76;97848.03;5062973;28;20045;-94
2022/01/05 05:25:55;;;;;;;14.73;6.32;;;;;;;10.19;94.75;97842.88;5064291;28;20037;-95
2022/01/05 05:28:21;;;;;;;14.00;7.35;;;;;;;10.35;94.59;97861.72;5064683;28;20037;-96
2022/01/05 05:34:11;;;;;;;14.25;6.63;;;;;;;10.19;95.09;97842.88;5063965;28;20037;-95
2022/01/05 05:36:38;;;;;;;11.23;6.55;;;;;;;10.15;95.68;97827.09;5064049;28;20140;-94
2022/01/05 05:39:03;;;;;;;13.48;5.88;;;;;;;10.15;95.29;97825.31;5063061;28;20483;-95
2022/01/05 05:41:30;;;;;;;11.82;6.10;;;;;;;10.15;95.64;97825.31;5063862;28;20086;-95
2022/01/05 05:43:56;;;;;;;12.77;6.80;;;;;;;10.15;94.85;97812.03;5063687;28;20048;-95
2022/01/05 05:46:22;;;;;;;17.88;6.50;;;;;;;10.32;94.76;97839.72;5063310;28;20068;-95
2022/01/05 05:48:49;;;;;;;13.13;6.40;;;;;;;10.23;94.38;97801.06;5062819;28;20049;-94
2022/01/05 05:51:16;;;;;;;12.38;5.75;;;;;;;10.27;94.35;97811.50;5062681;28;20065;-95
2022/01/05 05:53:42;;;;;;;12.27;5.50;;;;;;;10.20;94.60;97798.56;5063017;28;20136;-96
2022/01/05 05:56:08;;;;;;;12.73;6.53;;;;;;;10.23;94.89;97815.22;5063753;28;20091;-93
2022/01/05 05:58:34;;;;;;;13.60;6.35;;;;;;;10.22;94.92;97818.81;5064447;28;20040;-95
2022/01/05 06:04:34;;;;;;;16.02;6.72;;;;;;;10.28;94.11;97801.78;5062947;28;20061;-95
2022/01/05 06:07:01;;;;;;;12.75;6.50;;;;;;;10.24;93.70;97789.53;5062228;28;20487;-94
2022/01/05 06:09:27;;;;;;;11.80;6.80;;;;;;;10.39;94.13;97820.81;5063105;28;20055;-95
2022/01/05 06:11:53;;;;;;;12.07;6.10;;;;;;;10.17;94.25;97780.97;5063751;28;20037;-94
2022/01/05 06:14:19;;;;;;;13.25;6.22;;;;;;;10.20;93.88;97782.63;5063996;28;20060;-95
2022/01/05 06:20:10;;;;;;;10.43;5.88;;;;;;;10.17;93.77;97774.75;5043685;28;20040;-95
2022/01/05 06:22:40;;;;;;;10.13;6.03;;;;;;;10.17;93.87;97780.97;5043720;28;20402;-95
2022/01/05 06:25:07;;;;;;;12.73;6.05;;;;;;;10.21;93.83;97785.22;5043858;28;20046;-95
2022/01/05 06:27:33;;;;;;;10.60;5.25;;;;;;;10.12;93.40;97763.47;5061189;28;20075;-95
2022/01/05 06:30:04;;;;;;;9.80;5.60;;;;;;;10.22;93.89;97780.75;5063236;28;20048;-95
2022/01/05 06:32:46;;;;;;;12.38;5.45;;;;;;;10.19;94.26;97780.88;5061687;28;20048;-94
2022/01/05 06:35:13;;;;;;;11.98;5.97;;;;;;;10.23;93.12;97791.31;5061618;28;20061;-92
2022/01/05 06:37:41;;;;;;;9.02;5.20;;;;;;;10.13;93.03;97775.81;5059881;28;20037;-95
2022/01/05 06:40:08;;;;;;;13.02;5.25;;;;;;;10.15;93.28;97781.91;5060966;28;20055;-96
2022/01/05 06:42:35;;;;;;;11.65;5.70;;;;;;;10.01;93.49;97761.25;5060552;28;20110;-93
2022/01/05 06:45:01;;;;;;;10.20;5.10;;;;;;;9.96;93.83;97763.25;5061482;28;20025;-95
2022/01/05 06:47:27;;;;;;;10.27;5.07;;;;;;;9.93;94.11;97764.22;5059681;28;20056;-94
2022/01/05 06:49:55;;;;;;;10.18;5.28;;;;;;;9.90;94.14;97761.69;5059694;28;20048;-95
2022/01/05 06:52:24;;;;;;;9.70;5.07;;;;;;;9.88;94.42;97766.19;5061700;28;20056;-93
2022/01/05 06:54:52;;;;;;;10.30;5.40;;;;;;;10.01;94.29;97771.88;5061091;28;20037;-95
2022/01/05 06:57:19;;;;;;;13.15;5.90;;;;;;;9.94;94.56;97768.59;5060922;28;20045;-93
2022/01/05 06:59:45;;;;;;;10.20;5.88;;;;;;;9.92;94.57;97764.28;5058741;28;20052;-93
2022/01/05 07:05:54;;;;;;;12.32;5.93;;;;;;;10.12;94.68;97790.88;5042205;28;20115;-94
2022/01/05 07:08:20;;;;;;;15.65;6.47;;;;;;;9.94;95.29;97770.41;5040954;28;20045;-95
2022/01/05 07:10:49;;;;;;;12.73;5.57;;;;;;;9.93;95.34;97758.94;5040245;28;20380;-94
2022/01/05 07:13:16;;;;;;;10.77;6.03;;;;;;;10.00;94.89;97763.03;5052215;28;20045;-95
2022/01/05 07:19:44;;;;;;;11.88;6.05;;;;;;;10.20;95.14;97777.31;5060922;28;20040;-94
2022/01/05 07:22:10;;;;;;;13.65;6.50;;;;;;;10.19;93.92;97759.63;5049756;28;20028;-94
2022/01/05 07:24:36;;;;;;;11.20;6.40;;;;;;;10.12;94.26;97743.06;5061364;28;20132;-95
2022/01/05 07:27:04;;;;;;;13.70;6.60;;;;;;;10.21;94.50;97752.44;5062077;28;20072;-96
2022/01/05 07:29:31;;;;;;;12.80;6.35;;;;;;;10.23;94.19;97745.28;5061871;28;20045;-95
2022/01/05 07:35:20;;;;;;;13.55;6.97;;;;;;;10.65;92.20;97761.22;5062019;28;20143;-96
2022/01/05 07:37:46;;;;;;;14.75;6.60;;;;;;;10.64;91.54;97740.00;5061597;28;20044;-95
2022/01/05 07:40:13;;;;;;;15.70;6.63;;;;;;;10.77;90.96;97745.66;5060099;28;20053;-95
2022/01/05 07:42:41;;;;;;;14.35;7.00;;;;;;;10.81;90.74;97742.78;5060512;28;20499;-95
2022/01/05 07:51:51;;;;;;;16.63;7.55;;;;;;;11.06;89.99;97737.25;5040354;28;20040;-95
2022/01/05 07:54:17;;;;;;;14.73;8.00;;;;;;;11.15;89.37;97748.41;5055022;28;20080;-95
2022/01/05 07:56:43;;;;;;;23.60;11.02;;;;;;;11.31;89.13;97762.72;5060293;28;20053;-93
2022/01/05 07:59:10;;;;;;;19.23;8.35;;;;;;;11.36;88.41;97755.38;5059061;28;20041;-95
2022/01/05 08:04:58;;;;;;;16.55;7.40;;;;;;;11.46;87.41;97742.50;5037427;28;20055;-95
2022/01/05 08:07:24;;;;;;;19.50;8.40;;;;;;;11.72;86.62;97757.25;5053232;28;20103;-96
2022/01/05 08:09:50;;;;;;;15.73;7.82;;;;;;;11.86;86.31;97760.13;5058263;28;20502;-93
2022/01/05 08:12:16;;;;;;;18.23;7.47;;;;;;;11.80;86.12;97754.22;5057051;28;20159;-95
2022/01/05 08:14:43;;;;;;;16.33;8.02;;;;;;;11.87;85.99;97750.31;5056631;28;20049;-96
2022/01/05 08:17:09;;;;;;;17.67;7.45;;;;;;;12.07;85.28;97762.69;5060971;28;20407;-96
2022/01/05 08:19:38;;;;;;;19.13;8.60;;;;;;;12.17;85.21;97741.78;5059778;28;20041;-94
2022/01/05 08:22:04;;;;;;;16.92;8.65;;;;;;;12.22;83.94;97719.28;5061231;28;20069;-94
2022/01/05 08:24:30;;;;;;;14.32;7.47;;;;;;;12.44;84.35;97744.84;5060084;28;20049;-95
2022/01/05 08:26:58;;;;;;;18.10;7.63;;;;;;;12.50;83.62;97750.72;5060520;28;20084;-94
2022/01/05 08:29:24;;;;;;;16.50;8.00;;;;;;;12.45;83.03;97734.13;5061819;28;20125;-96
2022/01/05 08:35:15;;;;;;;20.55;8.32;;;;;;;12.70;82.17;97738.19;5039187;28;20039;-94
2022/01/05 08:37:46;;;;;;;17.40;9.02;;;;;;;12.52;81.98;97727.53;5054217;28;20041;-94
2022/01/05 08:40:15;;;;;;;16.60;8.57;;;;;;;12.71;82.16;97730.09;5061180;28;20044;-95
2022/01/05 08:42:44;;;;;;;17.15;8.02;;;;;;;12.91;80.94;97718.38;5057693;28;20090;-95
2022/01/05 08:49:02;;;;;;;18.67;9.13;;;;;;;13.33;80.32;97740.19;5063207;28;20041;-96
2022/01/05 08:51:36;;;;;;;18.15;8.85;;;;;;;13.49;78.82;97742.91;5063600;28;20479;-96
2022/01/05 08:54:02;;;;;;;16.58;9.02;;;;;;;13.19;79.43;97719.56;5063152;28;20048;-94
2022/01/05 08:56:29;;;;;;;21.33;9.63;;;;;;;13.06;80.82;97716.69;5062058;28;20076;-94
2022/01/05 08:58:55;;;;;;;17.85;8.45;;;;;;;13.10;79.15;97707.56;5062192;28;20045;-93
2022/01/05 09:04:53;;;;;;;24.27;9.65;;;;;;;13.24;79.55;97711.28;5062015;28;20033;-95
2022/01/05 09:07:36;;;;;;;18.10;8.85;;;;;;;13.48;79.18;97719.78;5041105;28;20109;-94
2022/01/05 09:10:05;;;;;;;23.40;10.07;;;;;;;13.45;79.08;97707.47;5071090;28;20048;-95
2022/01/05 09:12:32;;;;;;;23.83;10.20;;;;;;;13.49;78.55;97703.69;5083158;28;20037;-94
2022/01/05 09:14:58;;;;;;;20.52;10.32;;;;;;;13.52;78.00;97702.66;5082984;28;20105;-96
2022/01/05 09:20:46;;;;;;;20.73;10.05;;;;;;;13.34;79.67;97720.56;5061995;28;20040;-93
2022/01/05 09:23:14;;;;;;;22.55;9.60;;;;;;;13.46;78.70;97694.97;5061748;28;20522;-94
2022/01/05 09:25:40;;;;;;;26.58;10.55;;;;;;;13.46;77.95;97701.16;5063004;28;20487;-96
2022/01/05 09:28:07;;;;;;;20.40;10.10;;;;;;;13.59;77.26;97684.47;5060536;28;20071;-96
2022/01/05 09:33:54;;;;;;;22.08;10.48;;;;;;;13.76;78.14;97714.63;5061036;28;20029;-94
2022/01/05 09:36:31;;;;;;;20.88;10.25;;;;;;;13.65;77.06;97670.78;5061328;28;20061;-93
2022/01/05 09:42:05;;;;;;;20.80;10.85;;;;;;;14.06;76.25;97687.06;5124842;27;20404;-95
2022/01/05 09:44:33;;;;;;;25.52;10.90;;;;;;;13.89;76.51;97685.38;5107366;28;20048;-94
2022/01/05 09:54:22;;;;;;;24.30;11.43;;;;;;;14.44;75.30;97697.31;5099157;28;20106;-94
2022/01/05 09:56:53;;;;;;;21.80;10.88;;;;;;;13.87;76.55;97681.94;5098810;28;20489;-94
2022/01/05 09:59:21;;;;;;;28.80;11.23;;;;;;;13.81;76.46;97660.03;5135935;27;20055;-93
2022/01/05 10:01:47;;;;;;;26.13;12.18;;;;;;;13.67;76.65;97667.06;5137627;27;20047;-95
2022/01/05 10:04:14;;;;;;;23.08;11.50;;;;;;;13.72;76.87;97659.63;5137405;27;20103;-95
2022/01/05 10:06:40;;;;;;;22.10;10.95;;;;;;;14.06;75.51;97648.81;5112282;28;20051;-93
2022/01/05 10:09:08;;;;;;;26.50;12.00;;;;;;;13.82;76.79;97643.09;5119331;28;20093;-95
2022/01/05 10:11:36;;;;;;;21.45;10.68;;;;;;;13.90;76.61;97638.13;5119610;28;20044;-94
2022/01/05 10:14:03;;;;;;;21.77;10.35;;;;;;;13.96;76.25;97664.50;5111963;28;20048;-93
2022/01/05 10:19:57;;;;;;;23.80;12.60;;;;;;;13.60;77.05;97654.13;5124047;28;20104;-93
2022/01/05 10:22:29;;;;;;;20.55;11.35;;;;;;;13.93;77.41;97675.38;5093386;28;20117;-94
2022/01/05 10:24:56;;;;;;;27.15;12.07;;;;;;;14.05;76.01;97655.06;5101355;28;20075;-92
2022/01/05 10:27:26;;;;;;;23.88;11.05;;;;;;;14.04;75.00;97670.25;5116102;28;20040;-93
2022/01/05 10:29:55;;;;;;;21.65;10.50;;;;;;;13.82;74.74;97653.78;5110264;28;20040;-94
2022/01/05 10:35:27;;;;;;;27.35;11.45;;;;;;;13.85;75.86;97674.97;5104531;28;19916;-93
2022/01/05 10:37:59;;;;;;;23.38;11.48;;;;;;;13.62;76.56;97654.91;5115241;28;20131;-94
2022/01/05 10:40:25;;;;;;;23.63;10.75;;;;;;;13.60;77.60;97670.16;5114043;28;20139;-96
2022/01/05 10:42:53;;;;;;;18.33;9.90;;;;;;;13.51;77.52;97644.81;5112973;28;20486;-94
2022/01/05 10:48:53;;;;;;;25.58;11.50;;;;;;;13.56;78.42;97658.78;5116209;28;20027;-93
2022/01/05 10:51:29;;;;;;;18.65;10.63;;;;;;;13.65;77.13;97623.53;5105664;28;20040;-91
2022/01/05 10:54:09;;;;;;;24.58;11.80;;;;;;;13.97;76.15;97618.13;5083107;28;20048;-92
2022/01/05 10:56:35;;;;;;;23.70;10.93;;;;;;;13.90;76.07;97612.28;5085675;28;20043;-93
2022/01/05 10:59:03;;;;;;;25.00;11.35;;;;;;;13.72;75.80;97583.97;5092458;28;20052;-92
2022/01/05 11:04:52;;;;;;;23.33;11.23;;;;;;;14.44;74.27;97578.75;5078412;28;20029;-94
2022/01/05 11:07:23;;;;;;;23.65;10.60;;;;;;;14.85;72.72;97573.50;5077560;28;20049;-94
2022/01/05 11:09:55;;;;;;;22.33;10.25;;;;;;;14.89;71.13;97553.63;5078849;28;20044;-92
2022/01/05 11:12:30;;;;;;;21.58;10.07;;;;;;;14.69;71.24;97557.59;5079884;28;20045;-95
2022/01/05 11:22:05;;;;;;;21.08;9.32;;;;;;;14.54;71.65;97529.09;5066360;28;20439;-92
2022/01/05 11:24:37;;;;;;;19.90;9.73;;;;;;;14.55;72.17;97537.06;5057079;28;20721;-93
2022/01/05 11:27:08;;;;;;;20.55;10.23;;;;;;;14.36;72.60;97501.69;5057252;28;20045;-94
2022/01/05 11:29:35;;;;;;;21.98;10.10;;;;;;;14.44;72.14;97515.41;5057821;28;20048;-94
2022/01/05 11:35:22;;;;;;;22.60;11.35;;;;;;;14.16;73.34;97502.91;5069588;28;20043;-93
2022/01/05 11:37:49;;;;;;;19.02;9.98;;;;;;;13.96;73.76;97520.19;5097989;28;20040;-94
2022/01/05 11:40:19;;;;;;;19.95;10.27;;;;;;;13.89;73.82;97513.50;5097855;28;20047;-93
2022/01/05 11:42:48;;;;;;;20.63;9.50;;;;;;;13.85;74.64;97509.28;5097860;28;20044;-93
2022/01/05 11:51:59;;;;;;;17.90;8.90;;;;;;;13.75;74.92;97464.44;5100475;28;20102;-94
2022/01/05 11:54:32;;;;;;;21.25;9.40;;;;;;;13.56;74.66;97461.16;5100532;28;20047;-93
2022/01/05 11:57:06;;;;;;;20.63;9.50;;;;;;;13.83;74.40;97489.81;5099467;28;20040;-94
2022/01/05 11:59:35;;;;;;;19.80;9.68;;;;;;;13.72;74.37;97450.38;5085643;28;20060;-93
2022/01/05 12:05:26;;;;;;;23.73;10.25;;;;;;;13.76;74.14;97446.56;5098267;28;20288;-93
2022/01/05 12:07:55;;;;;;;;;;;;;;;13.79;73.96;97462.41;5086115;28;20094;-96
2022/01/05 12:10:47;;;;;;;20.90;9.63;;;;;;;13.73;73.88;97428.94;5100668;28;19930;-95
2022/01/05 12:13:36;;;;;;;21.67;9.98;;;;;;;13.77;73.75;97410.91;5098651;28;20513;-96
2022/01/05 12:19:34;;;;;;;18.55;8.93;;;;;;;13.95;72.62;97424.94;5080385;28;20663;-95
2022/01/05 12:22:03;;;;;;;14.55;8.63;;;;;;;13.94;73.34;97436.56;5079890;28;20047;-94
2022/01/05 12:25:00;;;;;;;17.95;9.35;;;;;;;13.76;72.53;97398.47;5078144;28;20484;-93
2022/01/05 12:27:27;;;;;;;13.48;8.93;;;;;;;13.70;71.88;97399.72;5094964;28;20075;-93
2022/01/05 12:29:54;;;;;;;13.63;8.02;;;;;;;13.77;71.57;97401.06;5087645;28;20093;-93
2022/01/05 12:36:00;;;;;;;18.63;9.18;;;;;;;13.89;71.21;97378.06;5086470;28;20028;-93
2022/01/05 12:38:41;;;;;;;19.88;8.82;;;;;;;14.15;70.86;97364.88;5100340;28;20041;-94
2022/01/05 12:41:40;;;;;;;16.60;8.43;;;;;;;14.32;69.60;97371.81;5101398;28;20073;-94
2022/01/05 12:44:35;;;;;;;19.45;8.98;;;;;;;14.26;70.32;97372.19;5080210;28;20047;-95
2022/01/05 12:50:31;;;;;;;15.40;8.25;;;;;;;14.06;69.81;97363.63;5081661;28;20494;-93
2022/01/05 12:52:57;;;;;;;13.93;7.72;;;;;;;13.72;70.55;97362.22;5120123;28;20459;-95
2022/01/05 12:55:23;;;;;;;19.60;8.57;;;;;;;13.62;71.23;97351.28;5118714;28;20075;-95
2022/01/05 12:57:57;;;;;;;19.90;10.02;;;;;;;13.69;71.61;97352.59;5118436;28;20039;-94
2022/01/05 13:04:40;;;;;;;19.05;8.82;;;;;;;13.54;72.85;97374.91;5139852;27;20034;-94
2022/01/05 13:07:12;;;;;;;16.92;8.90;;;;;;;13.41;73.50;97363.28;5100311;28;20066;-94
2022/01/05 13:09:44;;;;;;;18.38;9.48;;;;;;;13.21;74.18;97327.09;5117243;28;20042;-95
2022/01/05 13:12:16;;;;;;;21.38;10.85;;;;;;;13.20;74.69;97346.69;5120365;28;20074;-94
2022/01/05 13:14:58;;;;;;;19.63;9.68;;;;;;;13.07;74.30;97325.22;5112182;28;20097;-93
2022/01/05 13:34:40;;;;;;;18.08;8.98;;;;;;;13.49;73.71;97291.56;5113077;28;20550;-93
2022/01/05 13:37:07;;;;;;;18.45;8.38;;;;;;;13.35;73.80;97290.59;5118226;28;20079;-93
2022/01/05 13:39:42;;;;;;;13.32;8.70;;;;;;;13.59;74.09;97314.03;5117817;28;20063;-94
2022/01/05 13:42:13;;;;;;;15.68;8.70;;;;;;;13.45;74.09;97293.56;5110651;28;20040;-93
2022/01/05 13:44:41;;;;;;;18.20;8.85;;;;;;;13.57;73.85;97289.25;5115630;28;20038;-94
2022/01/05 13:50:35;;;;;;;19.10;9.18;;;;;;;13.26;73.69;97264.44;5092596;28;20054;-93
2022/01/05 13:53:04;;;;;;;18.77;9.27;;;;;;;13.23;74.76;97277.09;5101060;28;20047;-94
2022/01/05 13:55:37;;;;;;;17.17;8.50;;;;;;;13.29;74.64;97306.13;5098326;28;20044;-93
2022/01/05 13:58:06;;;;;;;19.00;9.23;;;;;;;13.26;74.85;97298.28;5099989;28;20492;-93
2022/01/05 14:00:33;;;;;;;16.17;9.00;;;;;;;13.18;74.77;97290.72;5108250;28;20370;-95
2022/01/05 14:02:58;;;;;;;17.10;8.90;;;;;;;13.21;74.98;97295.06;5098348;28;20059;-92
2022/01/05 14:05:28;;;;;;;16.25;7.85;;;;;;;13.26;74.14;97283.13;5096931;28;20482;-95
2022/01/05 14:08:08;;;;;;;;;;;;;;;13.22;75.15;97305.59;5097259;28;20048;-93
2022/01/05 14:10:36;;;;;;;14.77;8.80;;;;;;;13.09;74.75;97276.13;5096687;28;20377;-91
2022/01/05 14:13:05;;;;;;;16.42;9.00;;;;;;;13.21;75.62;97298.56;5096795;28;20080;-93
2022/01/05 14:19:34;;;;;;;18.05;8.15;;;;;;;12.99;76.25;97293.69;5100799;28;20031;-95
2022/01/05 14:22:03;;;;;;;17.75;9.05;;;;;;;12.82;76.63;97284.03;5098132;28;20050;-94
2022/01/05 14:24:33;;;;;;;20.88;8.70;;;;;;;12.76;77.02;97280.88;5107772;28;20047;-93
2022/01/05 14:27:00;;;;;;;19.95;8.73;;;;;;;12.66;78.03;97272.53;5123787;28;20074;-94
2022/01/05 14:29:27;;;;;;;17.75;8.65;;;;;;;12.67;77.79;97277.78;5119809;28;20036;-95
2022/01/05 14:35:18;;;;;;;16.40;8.05;;;;;;;12.51;78.86;97261.84;5102876;28;20039;-94
2022/01/05 14:37:55;;;;;;;19.05;10.30;;;;;;;12.50;78.81;97264.59;5113552;28;20051;-94
2022/01/05 14:40:28;;;;;;;21.50;10.20;;;;;;;12.51;78.77;97267.19;5119130;28;20489;-94
2022/01/05 14:43:02;;;;;;;19.55;9.98;;;;;;;12.49;79.18;97257.53;5105893;28;20048;-94
2022/01/05 15:05:45;;;;;;;21.17;10.02;;;;;;;12.40;80.13;97264.25;5091009;28;20035;-95
2022/01/05 15:08:11;;;;;;;25.75;10.00;;;;;;;12.32;80.33;97262.06;5105701;28;20048;-95
2022/01/05 15:10:38;;;;;;;15.32;9.30;;;;;;;12.38;79.46;97260.81;5106119;28;20050;-95
2022/01/05 15:13:05;;;;;;;21.48;9.80;;;;;;;12.52;80.06;97281.38;5108564;28;20075;-96
2022/01/05 15:19:31;;;;;;;19.55;9.98;;;;;;;12.48;81.31;97279.81;5107478;28;20079;-93
2022/01/05 15:21:58;;;;;;;19.80;10.32;;;;;;;12.35;81.34;97250.34;5101214;28;20040;-95
2022/01/05 15:24:25;;;;;;;21.83;10.68;;;;;;;12.39;81.92;97267.03;5107372;28;20051;-94
2022/01/05 15:26:51;;;;;;;19.58;9.35;;;;;;;12.20;81.24;97222.78;5107781;28;20040;-94